Nanchong, China
Current Conditions -  °F | °C
As of 9:00 AM on Wednesday 22 Oct 2014 (Local Time) from ZUCK Reporting Station
Clear Clear  
Wind Chill: 66°   Ceiling: Unl
Heat Index: 66°   Visibility: 6mi
Dew Point: 59°   Wind: 4mph
Humidity: 78%   Direction: 30°NNE
Pressure: 30.21"   Gusts: NA
Location:  30.78°N, 106.13°E
Report Text: ZUCK 220100Z 03002MPS CAVOK 19/15 Q1023 NOSIG
Loading
Personal Weather Stations






























Interactive Weather Map New forecast layout! Learn more

10-Day Weather Forecast

Advertisements
Track Severe Weather on mobile